Time;durP1;ratioP1;P1;durP2;ratioP2;P2;SDS_P1;SDS_P2;PMS_P1;PMS_P2;Temp;Humidity;BMP_temperature;BMP_pressure;BME280_temperature;BME280_humidity;BME280_pressure;Samples;Min_cycle;Max_cycle;Signal;HPM_P1;HPM_P2
2022/02/05 00:01:05;;;;;;;1.98;1.17;;;;;;;-139.48;100.00;61774.03;4992845;28;20145;-74
2022/02/05 00:03:56;;;;;;;4.57;1.55;;;;;;;-139.48;100.00;61774.03;4979415;28;20065;-74
2022/02/05 00:06:44;;;;;;;2.40;0.85;;;;;;;-139.48;100.00;61774.03;4979293;28;20041;-75
2022/02/05 00:10:02;;;;;;;3.25;1.23;;;;;;;-139.48;100.00;61774.03;4978485;28;20048;-74
2022/02/05 00:40:03;;;;;;;2.67;1.15;;;;;;;-139.48;100.00;61774.03;4995736;28;20049;-74
2022/02/05 00:42:47;;;;;;;2.80;1.25;;;;;;;-139.48;100.00;61774.03;4995889;28;20065;-74
2022/02/05 00:45:34;;;;;;;;;;;;;;;-139.48;100.00;61774.03;4981349;28;20513;-74
2022/02/05 00:48:19;;;;;;;4.07;1.40;;;;;;;-139.48;100.00;61774.03;4981316;28;19920;-74
2022/02/05 00:51:14;;;;;;;1.48;1.13;;;;;;;-139.48;100.00;61774.03;4981294;28;20053;-74
2022/02/05 00:59:29;;;;;;;;;;;;;;;-139.48;100.00;61774.03;4996044;28;20049;-72
2022/02/05 01:02:13;;;;;;;5.10;1.50;;;;;;;-139.48;100.00;61774.03;4980831;28;19920;-74
2022/02/05 01:04:57;;;;;;;7.72;1.55;;;;;;;-139.48;100.00;61774.03;4995181;28;20041;-74
2022/02/05 01:07:42;;;;;;;4.63;1.27;;;;;;;-139.48;100.00;61774.03;4995447;28;20181;-73
2022/02/05 01:10:27;;;;;;;3.00;1.40;;;;;;;-139.48;100.00;61774.03;4980778;28;20176;-74
2022/02/05 01:13:12;;;;;;;3.03;1.38;;;;;;;-139.48;100.00;61774.03;4980616;28;20112;-75
2022/02/05 01:16:09;;;;;;;3.45;1.27;;;;;;;-139.48;100.00;61774.03;4980654;28;20048;-74
2022/02/05 01:18:53;;;;;;;3.42;1.35;;;;;;;-139.48;100.00;61774.03;4982211;28;20061;-74
2022/02/05 01:21:48;;;;;;;;;;;;;;;-139.48;100.00;61774.03;4980905;28;20132;-74
2022/02/05 01:24:33;;;;;;;3.90;1.65;;;;;;;-139.48;100.00;61774.03;4980905;28;20348;-74
2022/02/05 01:30:37;;;;;;;2.40;1.35;;;;;;;-139.48;100.00;61774.03;4968392;28;20568;-74
2022/02/05 01:33:45;;;;;;;7.05;2.10;;;;;;;-139.48;100.00;61774.03;4980052;28;20053;-74
2022/02/05 01:39:24;;;;;;;5.47;2.33;;;;;;;-139.48;100.00;61774.03;4983634;28;20193;-74
2022/02/05 01:49:00;;;;;;;5.05;2.40;;;;;;;-139.48;100.00;61774.03;4994647;28;20053;-74
2022/02/05 01:57:27;;;;;;;8.18;3.42;;;;;;;-139.48;100.00;61774.03;4980102;28;20466;-73
2022/02/05 02:12:20;;;;;;;9.52;3.60;;;;;;;-139.48;100.00;61774.03;5055667;22;20111;-77
2022/02/05 02:15:32;;;;;;;9.43;3.83;;;;;;;-139.48;100.00;61774.03;5019700;28;20095;-77
2022/02/05 02:24:00;;;;;;;15.88;3.80;;;;;;;-139.48;100.00;61774.03;5034016;28;20052;-76
2022/02/05 02:27:00;;;;;;;7.68;3.53;;;;;;;-139.48;100.00;61774.03;5020853;28;20083;-77
2022/02/05 02:29:58;;;;;;;16.70;3.85;;;;;;;-139.48;100.00;61774.03;5021465;28;20528;-78
2022/02/05 02:32:47;;;;;;;7.72;3.65;;;;;;;-139.48;100.00;61774.03;5006936;28;20137;-78
2022/02/05 02:35:33;;;;;;;14.80;4.13;;;;;;;-139.48;100.00;61774.03;5033533;28;20426;-78
2022/02/05 02:38:21;;;;;;;9.20;4.47;;;;;;;-139.48;100.00;61774.03;5034190;28;20106;-76
2022/02/05 02:41:13;;;;;;;7.95;3.72;;;;;;;-139.48;100.00;61774.03;5019637;28;20075;-77
2022/02/05 02:43:57;;;;;;;6.53;3.20;;;;;;;-139.48;100.00;61774.03;5006256;28;20048;-78
2022/02/05 02:46:41;;;;;;;;;;;;;;;-139.48;100.00;61774.03;5019477;28;20103;-78
2022/02/05 02:58:37;;;;;;;6.53;3.40;;;;;;;-139.48;100.00;61774.03;5021824;28;20052;-78
2022/02/05 03:01:21;;;;;;;4.22;2.92;;;;;;;-139.48;100.00;61774.03;5034183;28;20606;-78
2022/02/05 03:04:05;;;;;;;9.18;3.00;;;;;;;-139.48;100.00;61774.03;5033493;28;20508;-78
2022/02/05 03:06:49;;;;;;;9.00;3.70;;;;;;;-139.48;100.00;61774.03;5018583;28;20040;-77
2022/02/05 03:09:33;;;;;;;;;;;;;;;-139.48;100.00;61774.03;5019138;28;20052;-77
2022/02/05 03:12:17;;;;;;;9.98;2.92;;;;;;;-139.48;100.00;61774.03;5033932;28;19958;-76
2022/02/05 03:15:03;;;;;;;7.10;2.92;;;;;;;-139.48;100.00;61774.03;5018566;28;20052;-78
2022/02/05 03:18:03;;;;;;;5.20;2.67;;;;;;;-139.48;100.00;61774.03;5018543;28;20084;-78
2022/02/05 03:20:47;;;;;;;7.32;2.47;;;;;;;-139.48;100.00;61774.03;5033835;28;20051;-78
2022/02/05 03:23:32;;;;;;;8.82;2.95;;;;;;;-139.48;100.00;61774.03;5033624;28;20052;-78
2022/02/05 03:26:15;;;;;;;;;;;;;;;-139.48;100.00;61774.03;5034016;28;20049;-77
2022/02/05 03:29:00;;;;;;;7.03;3.05;;;;;;;-139.48;100.00;61774.03;5033661;28;20007;-78
2022/02/05 03:31:43;;;;;;;9.90;3.38;;;;;;;-139.48;100.00;61774.03;5034157;28;20464;-78
2022/02/05 03:34:27;;;;;;;6.40;2.80;;;;;;;-139.48;100.00;61774.03;5005261;28;20100;-78
2022/02/05 03:37:11;;;;;;;5.80;2.58;;;;;;;-139.48;100.00;61774.03;5019034;28;20041;-78
2022/02/05 03:39:55;;;;;;;4.60;2.10;;;;;;;-139.48;100.00;61774.03;5033289;28;20052;-78
2022/02/05 03:42:39;;;;;;;;;;;;;;;-139.48;100.00;61774.03;5018962;28;20060;-78
2022/02/05 03:45:23;;;;;;;4.00;2.15;;;;;;;-139.48;100.00;61774.03;5019079;28;19936;-78
2022/02/05 03:48:07;;;;;;;3.97;2.28;;;;;;;-139.48;100.00;61774.03;5020068;28;20513;-78
2022/02/05 03:50:51;;;;;;;;;;;;;;;-139.48;100.00;61774.03;5022277;28;20052;-78
2022/02/05 03:53:36;;;;;;;4.18;1.90;;;;;;;-139.48;100.00;61774.03;5022040;28;19920;-78
2022/02/05 03:56:20;;;;;;;8.88;2.83;;;;;;;-139.48;100.00;61774.03;5023896;28;20048;-78
2022/02/05 03:59:04;;;;;;;7.55;2.10;;;;;;;-139.48;100.00;61774.03;5010240;28;20056;-78
2022/02/05 04:01:48;;;;;;;4.38;2.28;;;;;;;-139.48;100.00;61774.03;5023862;28;20064;-78
2022/02/05 04:04:32;;;;;;;8.90;2.30;;;;;;;-139.48;100.00;61774.03;5024600;28;20412;-78
2022/02/05 04:07:16;;;;;;;;;;;;;;;-139.48;100.00;61774.03;5041187;28;20095;-78
2022/02/05 04:10:03;;;;;;;4.72;2.05;;;;;;;-139.48;100.00;61774.03;5039560;28;19966;-78
2022/02/05 04:16:09;;;;;;;6.90;2.22;;;;;;;-139.48;100.00;61774.03;5036989;28;20051;-78
2022/02/05 04:18:55;;;;;;;3.47;2.30;;;;;;;-139.48;100.00;61774.03;5037232;28;20044;-78
2022/02/05 04:21:39;;;;;;;6.97;2.75;;;;;;;-139.48;100.00;61774.03;5021605;28;20103;-77
2022/02/05 04:24:22;;;;;;;;;;;;;;;-139.48;100.00;61774.03;5022516;28;20056;-78
2022/02/05 04:27:07;;;;;;;7.57;2.37;;;;;;;-139.48;100.00;61774.03;5021732;28;19920;-78
2022/02/05 04:29:51;;;;;;;6.25;2.30;;;;;;;-139.48;100.00;61774.03;5022463;28;20269;-78
2022/02/05 04:32:35;;;;;;;;;;;;;;;-139.48;100.00;61774.03;5038000;28;20127;-78
2022/02/05 04:35:19;;;;;;;5.70;1.80;;;;;;;-139.48;100.00;61774.03;5037113;28;19924;-78
2022/02/05 04:38:05;;;;;;;;;;;;;;;-139.48;100.00;61774.03;5037828;28;20099;-77
2022/02/05 04:40:55;;;;;;;4.65;2.47;;;;;;;-139.48;100.00;61774.03;5022136;28;20075;-78
2022/02/05 04:46:54;;;;;;;6.63;2.83;;;;;;;-139.48;100.00;61774.03;5023170;28;20110;-78
2022/02/05 04:55:57;;;;;;;5.97;3.08;;;;;;;-139.48;100.00;61774.03;5023992;28;20088;-78
2022/02/05 05:04:44;;;;;;;10.75;3.55;;;;;;;-139.48;100.00;61774.03;5022609;28;20098;-78
2022/02/05 05:10:30;;;;;;;;;;;;;;;-139.48;100.00;61774.03;5036694;28;20512;-78
2022/02/05 05:13:21;;;;;;;8.98;3.10;;;;;;;-139.48;100.00;61774.03;5036072;28;19979;-78
2022/02/05 05:22:21;;;;;;;11.75;3.85;;;;;;;-139.48;100.00;61774.03;4975325;28;20115;-78
2022/02/05 05:25:05;;;;;;;9.60;3.83;;;;;;;-139.48;100.00;61774.03;4975326;28;20105;-78
2022/02/05 05:27:49;;;;;;;12.38;4.13;;;;;;;-139.48;100.00;61774.03;5015512;28;20049;-78
2022/02/05 05:30:33;;;;;;;;;;;;;;;-139.48;100.00;61774.03;5025339;28;20048;-78
2022/02/05 05:33:17;;;;;;;9.10;4.10;;;;;;;-139.48;100.00;61774.03;5039373;28;20006;-78
2022/02/05 05:36:01;;;;;;;;;;;;;;;-139.48;100.00;61774.03;5021494;28;20100;-78
2022/02/05 05:38:45;;;;;;;9.65;4.25;;;;;;;-139.48;100.00;61774.03;5009472;28;20320;-78
2022/02/05 05:41:30;;;;;;;;;;;;;;;-139.48;100.00;61774.03;5009451;28;20048;-77
2022/02/05 05:47:35;;;;;;;;;;;;;;;-139.48;100.00;61774.03;5036211;28;20493;-78
2022/02/05 05:50:35;;;;;;;14.13;3.78;;;;;;;-139.48;100.00;61774.03;5035500;28;20012;-80
2022/02/05 05:53:15;;;;;;;8.82;3.47;;;;;;;-139.48;100.00;61774.03;5035365;28;20091;-77
2022/02/05 05:56:02;;;;;;;7.28;3.08;;;;;;;-139.48;100.00;61774.03;5020116;28;20068;-77
2022/02/05 05:58:46;;;;;;;19.98;3.70;;;;;;;-139.48;100.00;61774.03;5006354;28;20179;-77
2022/02/05 06:01:31;;;;;;;8.57;3.53;;;;;;;-139.48;100.00;61774.03;5019819;28;20044;-79
2022/02/05 06:04:15;;;;;;;11.13;3.53;;;;;;;-139.48;100.00;61774.03;5020002;28;20417;-76
2022/02/05 06:06:59;;;;;;;7.80;3.33;;;;;;;-139.48;100.00;61774.03;5034053;28;20468;-77
2022/02/05 06:09:43;;;;;;;;;;;;;;;-139.48;100.00;61774.03;5019627;28;20095;-76
2022/02/05 06:12:27;;;;;;;8.18;2.80;;;;;;;-139.48;100.00;61774.03;5034594;28;19920;-77
2022/02/05 06:15:11;;;;;;;;;;;;;;;-139.48;100.00;61774.03;5019619;28;20056;-76
2022/02/05 06:17:55;;;;;;;14.32;3.80;;;;;;;-139.48;100.00;61774.03;5019107;28;20010;-76
2022/02/05 06:20:39;;;;;;;;;;;;;;;-139.48;100.00;61774.03;5021324;28;20048;-77
2022/02/05 06:23:23;;;;;;;7.75;3.05;;;;;;;-139.48;100.00;61774.03;5034308;28;19939;-76
2022/02/05 06:26:06;;;;;;;;;;;;;;;-139.48;100.00;61774.03;5005593;28;20048;-77
2022/02/05 06:28:51;;;;;;;10.10;2.70;;;;;;;-139.48;100.00;61774.03;5018995;28;19967;-77
2022/02/05 06:31:34;;;;;;;;;;;;;;;-139.48;100.00;61774.03;5034137;28;20195;-77
2022/02/05 06:34:18;;;;;;;5.97;3.00;;;;;;;-139.48;100.00;61774.03;5019453;28;19920;-77
2022/02/05 06:37:02;;;;;;;;;;;;;;;-139.48;100.00;61774.03;5019515;28;20350;-77
2022/02/05 06:39:46;;;;;;;11.52;3.03;;;;;;;-139.48;100.00;61774.03;5019142;28;19924;-76
2022/02/05 06:42:30;;;;;;;;;;;;;;;-139.48;100.00;61774.03;5019208;28;20508;-77
2022/02/05 06:45:15;;;;;;;9.90;3.33;;;;;;;-139.48;100.00;61774.03;5018970;28;20395;-76
2022/02/05 06:47:59;;;;;;;7.40;2.88;;;;;;;-139.48;100.00;61774.03;5033917;28;20095;-76
2022/02/05 06:50:43;;;;;;;10.38;3.13;;;;;;;-139.48;100.00;61774.03;5018488;28;20092;-77
2022/02/05 06:53:27;;;;;;;;;;;;;;;-139.48;100.00;61774.03;5018763;28;20412;-77
2022/02/05 06:56:11;;;;;;;7.47;3.13;;;;;;;-139.48;100.00;61774.03;5018708;28;20291;-79
2022/02/05 06:58:55;;;;;;;5.25;2.70;;;;;;;-139.48;100.00;61774.03;5034634;28;20053;-77
2022/02/05 07:01:39;;;;;;;;;;;;;;;-139.48;100.00;61774.03;5020178;28;20056;-79
2022/02/05 07:04:25;;;;;;;10.93;3.22;;;;;;;-139.48;100.00;61774.03;5007412;28;19920;-79
2022/02/05 07:07:09;;;;;;;8.13;2.97;;;;;;;-139.48;100.00;61774.03;5035776;28;20092;-79
2022/02/05 07:09:53;;;;;;;4.00;2.85;;;;;;;-139.48;100.00;61774.03;5020279;28;20047;-78
2022/02/05 07:12:56;;;;;;;5.97;3.10;;;;;;;-139.48;100.00;61774.03;5036061;28;20043;-79
2022/02/05 07:15:51;;;;;;;10.20;2.92;;;;;;;-139.48;100.00;61774.03;5035612;28;20516;-79
2022/02/05 07:19:45;;;;;;;6.10;3.15;;;;;;;-139.48;100.00;61774.03;5021755;28;20125;-78
2022/02/05 07:21:52;;;;;;;6.60;3.40;;;;;;;-139.48;100.00;61774.03;5029267;28;20079;-78
2022/02/05 07:30:43;;;;;;;10.50;3.60;;;;;;;-139.48;100.00;61774.03;5037096;28;20090;-76
2022/02/05 07:33:27;;;;;;;;;;;;;;;-139.48;100.00;61774.03;5024148;28;20075;-78
2022/02/05 07:36:12;;;;;;;5.20;3.20;;;;;;;-139.48;100.00;61774.03;5009643;28;19924;-77
2022/02/05 07:38:56;;;;;;;8.60;3.78;;;;;;;-139.48;100.00;61774.03;5038581;28;20056;-77
2022/02/05 07:41:40;;;;;;;;;;;;;;;-139.48;100.00;61774.03;5022915;28;20129;-77
2022/02/05 07:44:24;;;;;;;7.07;3.95;;;;;;;-139.48;100.00;61774.03;5022655;28;19979;-77
2022/02/05 07:47:08;;;;;;;;;;;;;;;-139.48;100.00;61774.03;5037734;28;20099;-77
2022/02/05 07:49:53;;;;;;;7.22;4.05;;;;;;;-139.48;100.00;61774.03;5022404;28;19966;-77
2022/02/05 07:52:37;;;;;;;11.15;4.63;;;;;;;-139.48;100.00;61774.03;5022950;28;20507;-78
2022/02/05 07:55:21;;;;;;;;;;;;;;;-139.48;100.00;61774.03;5022695;28;20099;-77
2022/02/05 07:58:05;;;;;;;5.93;3.75;;;;;;;-139.48;100.00;61774.03;5023188;28;19939;-78
2022/02/05 08:00:49;;;;;;;6.60;3.13;;;;;;;-139.48;100.00;61774.03;5037394;28;20059;-78
2022/02/05 08:03:33;;;;;;;6.47;3.90;;;;;;;-139.48;100.00;61774.03;5009278;28;20456;-78
2022/02/05 08:06:17;;;;;;;5.97;3.80;;;;;;;-139.48;100.00;61774.03;5008935;28;20417;-77
2022/02/05 08:12:17;;;;;;;12.48;4.03;;;;;;;-139.48;100.00;61774.03;5038585;28;20056;-77
2022/02/05 08:15:01;;;;;;;8.23;3.67;;;;;;;-139.48;100.00;61774.03;5038107;23;20100;-72
2022/02/05 08:17:45;;;;;;;5.72;3.20;;;;;;;-139.48;100.00;61774.03;5016040;28;20053;-72
2022/02/05 08:20:29;;;;;;;;;;;;;;;-139.48;100.00;61774.03;5015139;28;20053;-70
2022/02/05 08:23:13;;;;;;;9.30;4.25;;;;;;;-139.48;100.00;61774.03;5015643;28;20027;-71
2022/02/05 08:25:57;;;;;;;;;;;;;;;-139.48;100.00;61774.03;5016033;28;20266;-71
2022/02/05 08:28:40;;;;;;;8.18;4.50;;;;;;;-139.48;100.00;61774.03;5015518;28;19940;-71
2022/02/05 08:31:24;;;;;;;;;;;;;;;-139.48;100.00;61774.03;5015977;28;20103;-70
2022/02/05 08:34:08;;;;;;;11.45;4.45;;;;;;;-139.48;100.00;61774.03;5015150;28;19920;-73
2022/02/05 08:36:56;;;;;;;12.13;4.45;;;;;;;-139.48;100.00;61774.03;5014643;28;20040;-73
2022/02/05 08:39:44;;;;;;;9.93;4.03;;;;;;;-139.48;100.00;61774.03;5014377;28;20053;-72
2022/02/05 08:42:28;;;;;;;8.40;4.18;;;;;;;-139.48;100.00;61774.03;5014530;28;20135;-71
2022/02/05 08:45:12;;;;;;;;;;;;;;;-139.48;100.00;61774.03;5015699;28;20084;-72
2022/02/05 08:47:56;;;;;;;11.45;4.65;;;;;;;-139.48;100.00;61774.03;5015399;28;19920;-73
2022/02/05 08:50:40;;;;;;;;;;;;;;;-139.48;100.00;61774.03;5014853;28;20147;-69
2022/02/05 08:53:24;;;;;;;19.30;5.18;;;;;;;-139.48;100.00;61774.03;5014433;28;19920;-72
2022/02/05 08:56:08;;;;;;;;;;;;;;;-139.48;100.00;61774.03;5014518;28;20061;-70
2022/02/05 08:58:54;;;;;;;10.65;4.78;;;;;;;-139.48;100.00;61774.03;5014493;28;19967;-70
2022/02/05 09:04:45;;;;;;;14.85;5.80;;;;;;;-139.48;100.00;61774.03;5015163;28;20056;-72
2022/02/05 09:07:29;;;;;;;10.68;4.95;;;;;;;-139.48;100.00;61774.03;5015042;28;20053;-72
2022/02/05 09:15:53;;;;;;;13.20;3.83;;;;;;;-139.48;100.00;61774.03;5014065;28;20033;-71
2022/02/05 09:18:37;;;;;;;9.63;3.60;;;;;;;-139.48;100.00;61774.03;5014636;28;20535;-72
2022/02/05 09:21:22;;;;;;;7.63;3.35;;;;;;;-139.48;100.00;61774.03;5013746;28;20056;-72
2022/02/05 09:24:07;;;;;;;5.90;3.45;;;;;;;-139.48;100.00;61774.03;5014799;28;20136;-72
2022/02/05 09:26:58;;;;;;;12.60;4.65;;;;;;;-139.48;100.00;61774.03;5014398;28;20552;-72
2022/02/05 09:30:03;;;;;;;9.52;4.55;;;;;;;-139.48;100.00;61774.03;5013460;28;20084;-71
2022/02/05 09:32:47;;;;;;;12.20;4.25;;;;;;;-139.48;100.00;61774.03;5013971;28;20081;-72
2022/02/05 09:35:31;;;;;;;7.75;4.05;;;;;;;-139.48;100.00;61774.03;5014554;28;20473;-71
2022/02/05 09:38:15;;;;;;;10.55;4.40;;;;;;;-139.48;100.00;61774.03;5013597;28;20406;-72
2022/02/05 09:40:59;;;;;;;9.27;3.50;;;;;;;-139.48;100.00;61774.03;5013348;28;20468;-73
2022/02/05 09:43:46;;;;;;;8.50;3.65;;;;;;;-139.48;100.00;61774.03;5014332;28;20406;-73
2022/02/05 09:46:30;;;;;;;9.15;3.45;;;;;;;-139.48;100.00;61774.03;5012387;28;20410;-72
2022/02/05 09:49:16;;;;;;;7.50;4.18;;;;;;;-139.48;100.00;61774.03;5013026;28;20061;-73
2022/02/05 09:52:19;;;;;;;12.65;3.85;;;;;;;-139.48;100.00;61774.03;5013917;28;20078;-72
2022/02/05 09:55:03;;;;;;;10.82;3.40;;;;;;;-139.48;100.00;61774.03;5013289;28;20040;-73
2022/02/05 09:57:48;;;;;;;5.55;3.38;;;;;;;-139.48;100.00;61774.03;5013926;28;20108;-72
2022/02/05 10:00:31;;;;;;;5.97;3.50;;;;;;;-139.48;100.00;61774.03;5013841;28;20101;-71
2022/02/05 10:03:25;;;;;;;;;;;;;;;-139.48;100.00;61774.03;5013406;28;20153;-72
2022/02/05 10:06:17;;;;;;;9.13;3.55;;;;;;;-139.48;100.00;61774.03;5012956;28;19921;-72
2022/02/05 10:09:13;;;;;;;10.05;3.90;;;;;;;-139.48;100.00;61774.03;5012964;28;20044;-72
2022/02/05 10:12:02;;;;;;;9.63;3.55;;;;;;;-139.48;100.00;61774.03;5012769;28;20418;-72
2022/02/05 10:14:51;;;;;;;8.95;4.05;;;;;;;-139.48;100.00;61774.03;5012503;28;20156;-72
2022/02/05 10:17:40;;;;;;;9.15;4.40;;;;;;;-139.48;100.00;61774.03;4998757;28;20080;-72
2022/02/05 10:20:24;;;;;;;9.23;4.15;;;;;;;-139.48;100.00;61774.03;4999027;28;20061;-72
2022/02/05 10:23:10;;;;;;;10.85;4.47;;;;;;;-139.48;100.00;61774.03;5012338;28;20092;-72
2022/02/05 10:25:55;;;;;;;10.73;4.30;;;;;;;-139.48;100.00;61774.03;5012544;28;20125;-73
2022/02/05 10:28:59;;;;;;;13.43;4.40;;;;;;;-139.48;100.00;61774.03;5012708;28;20112;-72
2022/02/05 10:31:59;;;;;;;;;;;;;;;-139.48;100.00;61774.03;5013301;28;20549;-69
2022/02/05 10:35:04;;;;;;;15.20;4.97;;;;;;;-139.48;100.00;61774.03;5012209;28;20018;-72
2022/02/05 10:38:13;;;;;;;9.27;3.85;;;;;;;-139.48;100.00;61774.03;5013434;28;20489;-72
2022/02/05 10:44:17;;;;;;;9.05;4.03;;;;;;;-139.48;100.00;61774.03;4975945;28;20136;-73
2022/02/05 10:47:00;;;;;;;12.10;4.50;;;;;;;-139.48;100.00;61774.03;5012390;28;20144;-72
2022/02/05 10:49:50;;;;;;;;;;;;;;;-139.48;100.00;61774.03;5013673;28;20100;-72
2022/02/05 10:52:35;;;;;;;14.82;4.53;;;;;;;-139.48;100.00;61774.03;5012266;28;19939;-72
2022/02/05 10:55:35;;;;;;;7.38;3.97;;;;;;;-139.48;100.00;61774.03;5011906;28;20052;-72
2022/02/05 11:07:32;;;;;;;7.85;3.78;;;;;;;-139.48;100.00;61774.03;5013054;28;20566;-72
2022/02/05 11:19:24;;;;;;;7.28;3.13;;;;;;;-139.48;100.00;61774.03;5012189;28;20049;-73
2022/02/05 11:22:08;;;;;;;7.45;3.65;;;;;;;-139.48;100.00;61774.03;4998112;28;20049;-72
2022/02/05 11:24:53;;;;;;;7.70;3.08;;;;;;;-139.48;100.00;61774.03;5011770;28;20417;-73
2022/02/05 11:27:44;;;;;;;9.18;3.00;;;;;;;-139.48;100.00;61774.03;5011636;28;20076;-71
2022/02/05 11:30:39;;;;;;;8.40;3.80;;;;;;;-139.48;100.00;61774.03;5012770;28;20049;-73
2022/02/05 11:33:28;;;;;;;8.45;3.20;;;;;;;-139.48;100.00;61774.03;5011603;28;20091;-72
2022/02/05 11:39:01;;;;;;;9.35;2.95;;;;;;;-139.48;100.00;61774.03;5012690;28;20060;-73
2022/02/05 11:41:45;;;;;;;6.88;3.00;;;;;;;-139.48;100.00;61774.03;5011385;28;20210;-73
2022/02/05 11:44:39;;;;;;;7.20;2.42;;;;;;;-139.48;100.00;61774.03;4997666;28;20048;-73
2022/02/05 11:47:27;;;;;;;7.07;2.60;;;;;;;-139.48;100.00;61774.03;5012696;28;20053;-72
2022/02/05 11:50:15;;;;;;;6.70;3.22;;;;;;;-139.48;100.00;61774.03;5011560;28;20131;-73
2022/02/05 11:53:00;;;;;;;8.45;3.08;;;;;;;-139.48;100.00;61774.03;5011325;28;20563;-73
2022/02/05 11:55:44;;;;;;;5.47;2.60;;;;;;;-139.48;100.00;61774.03;5011267;28;20145;-71
2022/02/05 11:58:55;;;;;;;4.85;2.70;;;;;;;-139.48;100.00;61774.03;5012603;28;20548;-72
2022/02/05 12:01:39;;;;;;;5.97;2.55;;;;;;;-139.48;100.00;61774.03;5011492;28;20109;-72
2022/02/05 12:04:29;;;;;;;5.70;2.47;;;;;;;-139.48;100.00;61774.03;4997571;28;20056;-72
2022/02/05 12:07:15;;;;;;;9.02;3.60;;;;;;;-139.48;100.00;61774.03;5012461;28;20099;-72
2022/02/05 12:09:58;;;;;;;8.88;2.85;;;;;;;-139.48;100.00;61774.03;5015171;28;20117;-72
2022/02/05 12:12:49;;;;;;;6.15;2.65;;;;;;;-139.48;100.00;61774.03;5016090;28;20373;-72
2022/02/05 12:15:33;;;;;;;7.72;2.88;;;;;;;-139.48;100.00;61774.03;5014914;28;20044;-72
2022/02/05 12:18:23;;;;;;;5.93;2.60;;;;;;;-139.48;100.00;61774.03;5015785;28;20528;-72
2022/02/05 12:21:12;;;;;;;8.40;2.97;;;;;;;-139.48;100.00;61774.03;5014899;28;20100;-71
2022/02/05 12:26:46;;;;;;;5.78;2.50;;;;;;;-139.48;100.00;61774.03;5015963;28;20049;-73
2022/02/05 12:29:31;;;;;;;7.80;2.95;;;;;;;-139.48;100.00;61774.03;5014760;28;20052;-72
2022/02/05 12:32:15;;;;;;;8.82;2.50;;;;;;;-139.48;100.00;61774.03;5014576;28;20049;-71
2022/02/05 12:34:59;;;;;;;7.18;2.70;;;;;;;-139.48;100.00;61774.03;5014548;28;20104;-72
2022/02/05 12:37:44;;;;;;;7.00;2.55;;;;;;;-139.48;100.00;61774.03;5014555;28;20040;-72
2022/02/05 12:40:28;;;;;;;7.35;2.72;;;;;;;-139.48;100.00;61774.03;5014546;28;20053;-72
2022/02/05 12:43:14;;;;;;;5.70;2.47;;;;;;;-139.48;100.00;61774.03;5015205;28;20053;-72
2022/02/05 12:46:09;;;;;;;8.05;2.42;;;;;;;-139.48;100.00;61774.03;5014774;28;20044;-72
2022/02/05 12:48:59;;;;;;;6.45;2.60;;;;;;;-139.48;100.00;61774.03;5015284;28;20088;-72
2022/02/05 12:51:44;;;;;;;5.40;2.38;;;;;;;-139.48;100.00;61774.03;5015261;28;20045;-71
2022/02/05 12:54:30;;;;;;;6.93;2.38;;;;;;;-139.48;100.00;61774.03;5013900;28;20049;-72
2022/02/05 12:57:19;;;;;;;6.70;2.40;;;;;;;-139.48;100.00;61774.03;5015222;28;20052;-72
2022/02/05 13:00:10;;;;;;;9.25;2.97;;;;;;;-139.48;100.00;61774.03;5015072;28;20100;-72
2022/02/05 13:02:53;;;;;;;9.80;2.83;;;;;;;-139.48;100.00;61774.03;5014098;28;20055;-72
2022/02/05 13:05:37;;;;;;;8.98;2.45;;;;;;;-139.48;100.00;61774.03;5015191;28;20450;-71
2022/02/05 13:08:21;;;;;;;6.28;2.50;;;;;;;-139.48;100.00;61774.03;5013894;28;20508;-73
2022/02/05 13:11:05;;;;;;;8.85;3.10;;;;;;;-139.48;100.00;61774.03;5014857;28;20068;-72
2022/02/05 13:13:52;;;;;;;16.98;3.22;;;;;;;-139.48;100.00;61774.03;4999683;28;20053;-70
2022/02/05 13:16:38;;;;;;;7.75;3.05;;;;;;;-139.48;100.00;61774.03;5013796;28;20041;-73
2022/02/05 13:19:26;;;;;;;9.55;3.35;;;;;;;-139.48;100.00;61774.03;5013687;28;20153;-71
2022/02/05 13:37:12;;;;;;;8.55;2.72;;;;;;;-139.48;100.00;61774.03;5013384;28;20125;-71
2022/02/05 13:40:01;;;;;;;10.93;2.20;;;;;;;-139.48;100.00;61774.03;5014236;28;20434;-72
2022/02/05 13:42:49;;;;;;;11.75;2.97;;;;;;;-139.48;100.00;61774.03;5000209;28;20099;-72
2022/02/05 13:45:37;;;;;;;8.63;2.35;;;;;;;-139.48;100.00;61774.03;5013852;28;20099;-73
2022/02/05 13:48:25;;;;;;;7.15;1.98;;;;;;;-139.48;100.00;61774.03;5013745;28;20049;-69
2022/02/05 13:51:10;;;;;;;6.80;2.58;;;;;;;-139.48;100.00;61774.03;5013567;28;20052;-72
2022/02/05 13:53:55;;;;;;;8.63;2.80;;;;;;;-139.48;100.00;61774.03;5013264;28;20053;-73
2022/02/05 13:56:43;;;;;;;8.43;2.55;;;;;;;-139.48;100.00;61774.03;5015167;28;20052;-69
2022/02/05 13:59:28;;;;;;;8.20;2.47;;;;;;;-139.48;100.00;61774.03;5013695;28;20517;-73
2022/02/05 14:02:17;;;;;;;10.18;2.92;;;;;;;-139.48;100.00;61774.03;5015651;28;20413;-73
2022/02/05 14:05:10;;;;;;;20.15;4.15;;;;;;;-139.48;100.00;61774.03;4999397;28;20401;-70
2022/02/05 14:07:54;;;;;;;4.70;2.05;;;;;;;-139.48;100.00;61774.03;5012810;28;20084;-71
2022/02/05 14:10:41;;;;;;;3.50;1.95;;;;;;;-139.48;100.00;61774.03;5012899;28;20048;-71
2022/02/05 14:13:25;;;;;;;8.88;2.40;;;;;;;-139.48;100.00;61774.03;5012656;28;20068;-72
2022/02/05 14:16:09;;;;;;;14.75;2.35;;;;;;;-139.48;100.00;61774.03;4998890;28;20040;-72
2022/02/05 14:18:56;;;;;;;5.25;2.00;;;;;;;-139.48;100.00;61774.03;5013864;28;20088;-72
2022/02/05 14:21:48;;;;;;;6.53;2.15;;;;;;;-139.48;100.00;61774.03;5013789;28;20133;-71
2022/02/05 14:24:39;;;;;;;9.02;2.65;;;;;;;-139.48;100.00;61774.03;5012603;28;20053;-72
2022/02/05 14:27:30;;;;;;;5.57;2.30;;;;;;;-139.48;100.00;61774.03;5013741;28;20074;-71
2022/02/05 14:30:15;;;;;;;6.80;2.42;;;;;;;-139.48;100.00;61774.03;5012609;28;20129;-73
2022/02/05 14:33:03;;;;;;;6.32;1.77;;;;;;;-139.48;100.00;61774.03;5012171;28;20051;-72
2022/02/05 14:36:38;;;;;;;5.95;1.70;;;;;;;-139.48;100.00;61774.03;5013270;28;20508;-73
2022/02/05 14:41:55;;;;;;;10.77;2.10;;;;;;;-139.48;100.00;61774.03;5013461;28;20053;-72
2022/02/05 14:44:39;;;;;;;7.30;1.90;;;;;;;-139.48;100.00;61774.03;5011953;28;20052;-72
2022/02/05 14:47:23;;;;;;;;;;;;;;;-139.48;100.00;61774.03;5012577;28;20049;-72
2022/02/05 14:50:07;;;;;;;10.80;2.30;;;;;;;-139.48;100.00;61774.03;5013345;28;20018;-72
2022/02/05 14:52:52;;;;;;;6.22;1.50;;;;;;;-139.48;100.00;61774.03;5013055;28;20333;-71
2022/02/05 14:55:36;;;;;;;6.38;1.55;;;;;;;-139.48;100.00;61774.03;5011842;28;20049;-72
2022/02/05 14:58:20;;;;;;;4.20;1.23;;;;;;;-139.48;100.00;61774.03;4998438;28;20457;-73
2022/02/05 15:01:05;;;;;;;7.00;1.83;;;;;;;-139.48;100.00;61774.03;5012235;28;20104;-73
2022/02/05 15:03:50;;;;;;;8.73;1.63;;;;;;;-139.48;100.00;61774.03;5011828;28;20084;-73
2022/02/05 15:06:35;;;;;;;4.03;1.60;;;;;;;-139.48;100.00;61774.03;5012127;28;20044;-72
2022/02/05 15:09:21;;;;;;;8.85;1.92;;;;;;;-139.48;100.00;61774.03;5013023;28;20048;-72
2022/02/05 15:12:05;;;;;;;6.47;1.63;;;;;;;-139.48;100.00;61774.03;5013300;28;20088;-72
2022/02/05 15:14:49;;;;;;;7.20;1.55;;;;;;;-139.48;100.00;61774.03;5012702;28;20060;-72
2022/02/05 15:17:40;;;;;;;;;;;;;;;-139.48;100.00;61774.03;5013597;28;20095;-70
2022/02/05 15:20:24;;;;;;;2.83;1.20;;;;;;;-139.48;100.00;61774.03;5012805;28;20022;-74
2022/02/05 15:23:09;;;;;;;6.88;1.83;;;;;;;-139.48;100.00;61774.03;5011633;28;20056;-73
2022/02/05 15:25:53;;;;;;;7.72;1.50;;;;;;;-139.48;100.00;61774.03;5012729;28;20096;-71
2022/02/05 15:28:37;;;;;;;5.95;1.58;;;;;;;-139.48;100.00;61774.03;5012885;28;20104;-69
2022/02/05 15:31:24;;;;;;;4.63;1.80;;;;;;;-139.48;100.00;61774.03;5011666;28;20095;-72
2022/02/05 15:34:09;;;;;;;7.47;2.03;;;;;;;-139.48;100.00;61774.03;5011634;28;20053;-73
2022/02/05 15:36:58;;;;;;;8.57;2.13;;;;;;;-139.48;100.00;61774.03;4997853;28;20052;-72
2022/02/05 15:40:14;;;;;;;5.57;1.52;;;;;;;-139.48;100.00;61774.03;5012781;28;20049;-72